createdAt,value
2022-09-23T00:01:02.475Z,8.75
2022-09-23T00:03:31.255Z,8.38
2022-09-23T00:06:07.193Z,8.32
2022-09-23T00:08:34.190Z,8.23
2022-09-23T00:11:14.942Z,8.50
2022-09-23T00:13:43.509Z,9.30
2022-09-23T00:16:13.274Z,8.20
2022-09-23T00:18:40.729Z,8.38
2022-09-23T00:21:10.861Z,8.33
2022-09-23T00:23:38.690Z,7.88
2022-09-23T00:26:08.128Z,8.25
2022-09-23T00:28:35.958Z,8.90
2022-09-23T00:31:11.515Z,8.00
2022-09-23T00:33:38.883Z,8.83
2022-09-23T00:36:08.752Z,8.07
2022-09-23T00:38:36.503Z,8.15
2022-09-23T00:41:03.967Z,7.63
2022-09-23T00:43:49.106Z,7.53
2022-09-23T00:46:19.733Z,7.67
2022-09-23T00:48:48.907Z,7.95
2022-09-23T00:51:20.079Z,7.60
2022-09-23T00:53:50.535Z,7.82
2022-09-23T00:56:19.663Z,7.43
2022-09-23T00:58:47.376Z,7.63
2022-09-23T01:01:14.432Z,7.90
2022-09-23T01:03:44.807Z,7.75
2022-09-23T01:06:12.140Z,7.40
2022-09-23T01:08:40.218Z,7.93
2022-09-23T01:11:14.694Z,8.07
2022-09-23T01:13:56.583Z,7.68
2022-09-23T01:16:41.354Z,7.35
2022-09-23T01:19:26.147Z,7.57
2022-09-23T01:22:29.080Z,7.25
2022-09-23T01:25:20.900Z,7.77
2022-09-23T01:28:23.746Z,7.18
2022-09-23T01:30:53.485Z,7.75
2022-09-23T01:33:29.632Z,7.60
2022-09-23T01:36:23.734Z,8.60
2022-09-23T01:38:59.625Z,7.70
2022-09-23T01:41:47.227Z,7.00
2022-09-23T01:44:20.169Z,7.95
2022-09-23T01:47:22.891Z,7.97
2022-09-23T01:49:57.874Z,7.68
2022-09-23T01:52:47.347Z,8.17
2022-09-23T01:55:21.176Z,7.82
2022-09-23T01:58:02.569Z,8.10
2022-09-23T02:00:35.428Z,7.80
2022-09-23T02:03:15.208Z,7.45
2022-09-23T02:06:09.403Z,7.80
2022-09-23T02:08:41.994Z,6.78
2022-09-23T02:11:11.908Z,7.90
2022-09-23T02:13:56.224Z,7.07
2022-09-23T02:16:25.638Z,8.32
2022-09-23T02:19:07.196Z,7.37
2022-09-23T02:21:39.147Z,6.80
2022-09-23T02:24:16.627Z,6.95
2022-09-23T02:26:49.296Z,6.50
2022-09-23T02:29:21.550Z,6.60
2022-09-23T02:32:15.102Z,7.30
2022-09-23T02:35:41.230Z,6.88
2022-09-23T02:38:25.994Z,6.97
2022-09-23T02:41:12.001Z,6.82
2022-09-23T02:44:03.390Z,7.03
2022-09-23T02:46:31.453Z,6.30
2022-09-23T02:49:11.348Z,6.25
2022-09-23T02:51:40.128Z,6.20
2022-09-23T02:54:13.336Z,6.72
2022-09-23T02:56:41.101Z,6.30
2022-09-23T02:59:14.262Z,6.67
2022-09-23T03:02:15.044Z,6.47
2022-09-23T03:05:18.271Z,6.30
2022-09-23T03:08:05.247Z,6.50
2022-09-23T03:11:04.199Z,6.28
2022-09-23T03:13:42.818Z,6.17
2022-09-23T03:16:22.593Z,6.20
2022-09-23T03:19:18.446Z,6.07
2022-09-23T03:22:18.596Z,7.22
2022-09-23T03:24:53.716Z,6.80
2022-09-23T03:27:26.226Z,6.57
2022-09-23T03:29:55.878Z,6.03
2022-09-23T03:32:29.611Z,6.07
2022-09-23T03:35:05.625Z,5.85
2022-09-23T03:37:52.345Z,5.45
2022-09-23T03:40:43.674Z,6.73
2022-09-23T03:43:14.172Z,6.45
2022-09-23T03:45:43.295Z,6.30
2022-09-23T03:48:11.023Z,5.90
2022-09-23T03:50:39.544Z,6.25
2022-09-23T03:53:18.137Z,6.87
2022-09-23T03:55:48.377Z,5.47
2022-09-23T03:58:22.780Z,6.30
2022-09-23T04:00:55.025Z,6.25
2022-09-23T04:03:24.416Z,7.07
2022-09-23T04:05:57.410Z,6.70
2022-09-23T04:08:25.254Z,5.80
2022-09-23T04:10:55.042Z,6.05
2022-09-23T04:13:22.263Z,6.40
2022-09-23T04:15:51.273Z,5.82
2022-09-23T04:18:21.350Z,6.30
2022-09-23T04:20:49.501Z,6.45
2022-09-23T04:23:18.039Z,6.38
2022-09-23T04:25:50.183Z,6.72
2022-09-23T04:28:17.500Z,6.32
2022-09-23T04:30:50.158Z,6.50
2022-09-23T04:33:18.019Z,6.20
2022-09-23T04:35:48.676Z,6.63
2022-09-23T04:38:15.202Z,6.43
2022-09-23T04:40:41.882Z,5.93
2022-09-23T04:43:13.446Z,6.63
2022-09-23T04:45:40.219Z,6.45
2022-09-23T04:48:10.089Z,6.25
2022-09-23T04:50:37.676Z,7.07
2022-09-23T04:53:05.852Z,7.10
2022-09-23T04:55:33.182Z,6.30
2022-09-23T04:57:59.672Z,6.60
2022-09-23T05:00:29.123Z,6.47
2022-09-23T05:02:58.244Z,6.97
2022-09-23T05:05:24.904Z,6.95
2022-09-23T05:07:54.937Z,6.93
2022-09-23T05:10:22.270Z,6.32
2022-09-23T05:12:52.447Z,7.10
2022-09-23T05:15:21.544Z,6.90
2022-09-23T05:17:48.471Z,6.88
2022-09-23T05:20:15.168Z,6.93
2022-09-23T05:22:44.175Z,6.80
2022-09-23T05:25:10.731Z,7.18
2022-09-23T05:27:39.051Z,7.38
2022-09-23T05:30:10.155Z,7.07
2022-09-23T05:32:36.944Z,7.33
2022-09-23T05:35:09.056Z,6.60
2022-09-23T05:37:37.647Z,7.68
2022-09-23T05:40:04.601Z,7.10
2022-09-23T05:42:31.271Z,7.05
2022-09-23T05:44:58.555Z,6.80
2022-09-23T05:47:26.285Z,6.95
2022-09-23T05:50:00.282Z,7.20
2022-09-23T05:52:27.579Z,7.00
2022-09-23T05:54:56.278Z,7.38
2022-09-23T05:57:22.970Z,7.30
2022-09-23T05:59:51.347Z,6.88
2022-09-23T06:02:18.201Z,7.70
2022-09-23T06:04:45.484Z,8.10
2022-09-23T06:07:12.396Z,7.20
2022-09-23T06:09:38.969Z,7.17
2022-09-23T06:12:09.538Z,7.88
2022-09-23T06:14:37.075Z,7.63
2022-09-23T06:17:03.664Z,7.80
2022-09-23T06:19:30.166Z,7.57
2022-09-23T06:21:56.567Z,8.47
2022-09-23T06:24:28.582Z,7.32
2022-09-23T06:26:57.381Z,7.78
2022-09-23T06:29:24.350Z,7.50
2022-09-23T06:31:51.112Z,7.63
2022-09-23T06:34:20.290Z,7.83
2022-09-23T06:36:47.611Z,7.68
2022-09-23T06:39:15.829Z,7.95
2022-09-23T06:41:43.441Z,7.70
2022-09-23T06:44:11.034Z,8.85
2022-09-23T06:46:38.114Z,7.77
2022-09-23T06:49:05.221Z,8.23
2022-09-23T06:51:31.942Z,7.70
2022-09-23T06:53:58.440Z,7.88
2022-09-23T06:56:24.930Z,8.43
2022-09-23T06:58:53.555Z,7.90
2022-09-23T07:01:20.968Z,7.60
2022-09-23T07:03:48.387Z,7.57
2022-09-23T07:06:15.859Z,8.05
2022-09-23T07:08:51.295Z,7.38
2022-09-23T07:11:22.369Z,8.07
2022-09-23T07:13:49.050Z,8.15
2022-09-23T07:16:15.750Z,8.65
2022-09-23T07:18:42.660Z,8.07
2022-09-23T07:21:14.956Z,8.68
2022-09-23T07:23:42.613Z,8.00
2022-09-23T07:26:09.423Z,7.78
2022-09-23T07:28:37.293Z,8.52
2022-09-23T07:31:10.451Z,8.57
2022-09-23T07:33:39.901Z,8.48
2022-09-23T07:36:08.503Z,9.07
2022-09-23T07:38:35.668Z,8.38
2022-09-23T07:41:05.787Z,7.60
2022-09-23T07:43:33.206Z,8.60
2022-09-23T07:46:10.553Z,8.68
2022-09-23T07:48:40.044Z,8.53
2022-09-23T07:51:12.526Z,8.30
2022-09-23T07:53:39.367Z,7.75
2022-09-23T07:56:06.829Z,8.75
2022-09-23T07:58:40.406Z,8.38
2022-09-23T08:01:11.970Z,8.53
2022-09-23T08:03:42.394Z,8.40
2022-09-23T08:06:13.159Z,8.48
2022-09-23T08:08:44.611Z,8.05
2022-09-23T08:11:14.320Z,8.68
2022-09-23T08:13:45.046Z,8.43
2022-09-23T08:16:11.857Z,8.27
2022-09-23T08:18:43.054Z,7.93
2022-09-23T08:21:19.641Z,7.78
2022-09-23T08:23:46.891Z,7.93
2022-09-23T08:26:19.992Z,7.67
2022-09-23T08:28:47.945Z,8.40
2022-09-23T08:31:14.942Z,7.93
2022-09-23T08:33:41.490Z,7.47
2022-09-23T08:36:08.220Z,7.53
2022-09-23T08:38:34.887Z,8.47
2022-09-23T08:41:39.831Z,7.18
2022-09-23T08:44:19.300Z,7.32
2022-09-23T08:47:15.721Z,7.30
2022-09-23T08:49:53.429Z,6.93
2022-09-23T08:52:33.406Z,6.47
2022-09-23T08:55:03.259Z,6.10
2022-09-23T08:58:24.956Z,6.15
2022-09-23T09:01:04.281Z,6.38
2022-09-23T09:03:40.253Z,6.40
2022-09-23T09:06:12.933Z,6.45
2022-09-23T09:08:40.172Z,6.28
2022-09-23T09:11:07.945Z,6.30
2022-09-23T09:13:43.300Z,5.45
2022-09-23T09:16:59.629Z,6.07
2022-09-23T09:19:41.290Z,5.63
2022-09-23T09:22:17.226Z,6.00
2022-09-23T09:24:45.982Z,6.30
2022-09-23T09:27:13.995Z,5.35
2022-09-23T09:29:49.774Z,5.53
2022-09-23T09:32:26.924Z,5.65
2022-09-23T09:35:06.110Z,5.50
2022-09-23T09:37:47.072Z,4.30
2022-09-23T09:40:17.446Z,3.90
2022-09-23T09:42:49.093Z,3.60
2022-09-23T09:45:47.155Z,3.90
2022-09-23T09:48:20.878Z,3.20
2022-09-23T09:50:52.192Z,3.60
2022-09-23T09:53:32.068Z,3.78
2022-09-23T09:56:16.106Z,4.07
2022-09-23T09:59:01.807Z,3.70
2022-09-23T10:01:31.266Z,3.58
2022-09-23T10:04:01.009Z,3.50
2022-09-23T10:06:30.386Z,3.15
2022-09-23T10:09:32.092Z,3.25
2022-09-23T10:12:18.986Z,3.17
2022-09-23T10:14:50.465Z,3.07
2022-09-23T10:17:39.348Z,3.50
2022-09-23T10:20:14.024Z,3.22
2022-09-23T10:22:42.480Z,3.17
2022-09-23T10:25:17.608Z,3.10
2022-09-23T10:27:45.506Z,3.03
2022-09-23T10:30:15.003Z,3.13
2022-09-23T10:32:44.919Z,2.72
2022-09-23T10:35:17.680Z,2.75
2022-09-23T10:37:52.573Z,2.80
2022-09-23T10:40:45.030Z,2.70
2022-09-23T10:44:19.786Z,2.80
2022-09-23T10:47:14.869Z,2.50
2022-09-23T10:50:00.259Z,2.72
2022-09-23T10:52:57.172Z,3.00
2022-09-23T10:55:32.425Z,2.97
2022-09-23T10:58:19.316Z,3.58
2022-09-23T11:00:55.112Z,2.80
2022-09-23T11:03:31.844Z,2.58
2022-09-23T11:06:35.675Z,2.65
2022-09-23T11:09:29.127Z,3.30
2022-09-23T11:12:02.002Z,3.47
2022-09-23T11:14:31.887Z,3.45
2022-09-23T11:17:08.296Z,3.90
2022-09-23T11:19:41.086Z,3.75
2022-09-23T11:22:21.170Z,3.40
2022-09-23T11:24:58.475Z,3.78
2022-09-23T11:28:05.109Z,4.10
2022-09-23T11:31:10.195Z,3.58
2022-09-23T11:33:55.074Z,4.35
2022-09-23T11:36:32.956Z,4.07
2022-09-23T11:39:05.413Z,3.70
2022-09-23T11:41:37.237Z,4.20
2022-09-23T11:44:14.988Z,4.47
2022-09-23T11:47:03.833Z,4.40
2022-09-23T11:50:09.729Z,3.80
2022-09-23T11:52:41.536Z,4.40
2022-09-23T11:55:28.202Z,4.40
2022-09-23T11:58:25.310Z,4.30
2022-09-23T12:01:01.439Z,4.30
2022-09-23T12:03:47.188Z,4.70
2022-09-23T12:06:39.954Z,4.50
2022-09-23T12:09:57.297Z,4.05
2022-09-23T12:12:49.609Z,3.88
2022-09-23T12:16:11.683Z,3.60
2022-09-23T12:19:11.204Z,3.00
2022-09-23T12:22:06.244Z,2.95
2022-09-23T12:24:54.035Z,2.60
2022-09-23T12:27:37.051Z,2.95
2022-09-23T12:30:13.192Z,2.88
2022-09-23T12:32:42.236Z,2.70
2022-09-23T12:35:35.849Z,3.20
2022-09-23T12:38:03.405Z,2.90
2022-09-23T12:40:40.775Z,2.75
2022-09-23T12:43:17.149Z,2.90
2022-09-23T12:45:43.829Z,2.87
2022-09-23T12:48:16.684Z,2.65
2022-09-23T12:50:55.890Z,2.85
2022-09-23T12:53:58.092Z,2.97
2022-09-23T12:56:36.665Z,3.10
2022-09-23T12:59:21.907Z,2.60
2022-09-23T13:01:48.957Z,2.78
2022-09-23T13:05:03.043Z,2.60
2022-09-23T13:07:34.213Z,3.17
2022-09-23T13:10:29.288Z,3.45
2022-09-23T13:12:57.999Z,2.90
2022-09-23T13:15:28.693Z,2.78
2022-09-23T13:18:20.784Z,2.67
2022-09-23T13:20:48.863Z,2.25
2022-09-23T13:23:33.760Z,2.63
2022-09-23T13:26:09.183Z,3.33
2022-09-23T13:28:46.433Z,2.80
2022-09-23T13:31:15.943Z,2.55
2022-09-23T13:33:59.737Z,2.85
2022-09-23T13:36:27.086Z,2.88
2022-09-23T13:38:54.057Z,2.93
2022-09-23T13:41:24.418Z,2.65
2022-09-23T13:44:00.238Z,2.30
2022-09-23T13:46:30.207Z,2.47
2022-09-23T13:48:57.325Z,3.08
2022-09-23T13:51:27.679Z,2.50
2022-09-23T13:53:56.315Z,2.80
2022-09-23T13:56:25.014Z,2.65
2022-09-23T13:58:52.247Z,2.90
2022-09-23T14:01:23.637Z,3.20
2022-09-23T14:03:51.332Z,2.67
2022-09-23T14:06:17.979Z,2.88
2022-09-23T14:08:50.278Z,2.67
2022-09-23T14:11:19.720Z,2.55
2022-09-23T14:13:48.740Z,2.95
2022-09-23T14:16:16.934Z,3.20
2022-09-23T14:18:46.482Z,2.80
2022-09-23T14:21:35.057Z,3.15
2022-09-23T14:24:25.038Z,3.63
2022-09-23T14:26:58.608Z,3.80
2022-09-23T14:29:34.267Z,3.30
2022-09-23T14:32:13.442Z,3.08
2022-09-23T14:34:40.861Z,3.78
2022-09-23T14:37:41.105Z,3.40
2022-09-23T14:40:15.360Z,3.90
2022-09-23T14:42:46.130Z,3.70
2022-09-23T14:45:21.578Z,3.65
2022-09-23T14:47:52.188Z,4.32
2022-09-23T14:50:37.069Z,4.45
2022-09-23T14:53:04.909Z,4.30
2022-09-23T14:55:31.466Z,3.93
2022-09-23T14:58:11.056Z,4.32
2022-09-23T15:00:37.553Z,4.22
2022-09-23T15:03:14.615Z,4.53
2022-09-23T15:05:46.243Z,4.82
2022-09-23T15:08:21.247Z,5.10
2022-09-23T15:10:48.859Z,5.13
2022-09-23T15:13:22.774Z,5.10
2022-09-23T15:15:53.273Z,4.65
2022-09-23T15:18:44.610Z,5.90
2022-09-23T15:21:17.581Z,5.10
2022-09-23T15:23:45.221Z,5.53
2022-09-23T15:26:13.806Z,6.18
2022-09-23T15:28:40.822Z,5.55
2022-09-23T15:31:09.171Z,5.38
2022-09-23T15:33:36.134Z,5.53
2022-09-23T15:36:03.293Z,6.07
2022-09-23T15:38:29.859Z,5.93
2022-09-23T15:40:56.437Z,6.72
2022-09-23T15:43:25.011Z,6.20
2022-09-23T15:45:54.675Z,6.00
2022-09-23T15:48:25.960Z,6.18
2022-09-23T15:50:54.314Z,6.07
2022-09-23T15:53:23.862Z,5.47
2022-09-23T15:55:51.126Z,6.07
2022-09-23T15:58:22.202Z,6.10
2022-09-23T16:00:56.088Z,5.50
2022-09-23T16:03:28.930Z,5.63
2022-09-23T16:05:59.987Z,6.03
2022-09-23T16:08:27.485Z,6.03
2022-09-23T16:10:54.914Z,5.80
2022-09-23T16:13:21.687Z,5.65
2022-09-23T16:15:48.145Z,5.78
2022-09-23T16:18:14.698Z,6.10
2022-09-23T16:20:44.534Z,6.10
2022-09-23T16:23:35.576Z,5.80
2022-09-23T16:26:17.605Z,5.63
2022-09-23T16:28:45.651Z,5.22
2022-09-23T16:31:16.064Z,5.07
2022-09-23T16:33:44.022Z,5.22
2022-09-23T16:36:22.579Z,5.23
2022-09-23T16:38:49.455Z,5.28
2022-09-23T16:41:15.948Z,5.30
2022-09-23T16:43:42.375Z,5.10
2022-09-23T16:46:12.137Z,5.00
2022-09-23T16:48:40.573Z,4.87
2022-09-23T16:51:13.441Z,4.78
2022-09-23T16:53:40.009Z,5.05
2022-09-23T16:56:10.938Z,5.63
2022-09-23T16:58:39.169Z,5.88
2022-09-23T17:01:26.021Z,5.97
2022-09-23T17:03:53.297Z,6.18
2022-09-23T17:06:20.280Z,6.57
2022-09-23T17:08:51.109Z,6.93
2022-09-23T17:11:17.633Z,6.82
2022-09-23T17:13:44.455Z,6.70
2022-09-23T17:16:20.994Z,6.80
2022-09-23T17:18:47.522Z,7.50
2022-09-23T17:21:13.977Z,7.75
2022-09-23T17:23:40.429Z,7.82
2022-09-23T17:26:09.645Z,7.33
2022-09-23T17:28:36.371Z,7.82
2022-09-23T17:31:06.567Z,7.55
2022-09-23T17:33:41.193Z,7.90
2022-09-23T17:36:09.449Z,8.07
2022-09-23T17:38:36.553Z,8.00
2022-09-23T17:41:04.293Z,8.90
2022-09-23T17:43:31.693Z,8.25
2022-09-23T17:46:06.252Z,8.40
2022-09-23T17:48:35.267Z,8.30
2022-09-23T17:51:11.913Z,8.87
2022-09-23T17:53:40.272Z,7.93
2022-09-23T17:56:27.052Z,8.05
2022-09-23T17:58:54.176Z,9.23
2022-09-23T18:01:23.942Z,8.30
2022-09-23T18:03:58.994Z,7.83
2022-09-23T18:06:28.608Z,9.07
2022-09-23T18:08:56.064Z,9.10
2022-09-23T18:11:28.235Z,8.45
2022-09-23T18:14:05.097Z,9.05
2022-09-23T18:16:35.618Z,9.07
2022-09-23T18:19:04.090Z,8.90
2022-09-23T18:21:33.042Z,10.48
2022-09-23T18:24:28.044Z,10.05
2022-09-23T18:26:47.942Z,10.20
2022-09-23T18:29:15.917Z,10.10
2022-09-23T18:31:44.226Z,11.38
2022-09-23T18:34:13.028Z,10.65
2022-09-23T18:36:40.308Z,10.40
2022-09-23T18:39:06.998Z,11.05
2022-09-23T18:41:33.902Z,10.70
2022-09-23T18:44:00.784Z,11.18
2022-09-23T18:46:31.725Z,10.82
2022-09-23T18:49:17.814Z,10.93
2022-09-23T18:51:56.068Z,10.85
2022-09-23T18:54:24.491Z,10.87
2022-09-23T18:56:52.648Z,11.70
2022-09-23T18:59:20.812Z,11.82
2022-09-23T19:01:49.675Z,11.23
2022-09-23T19:04:18.660Z,12.15
2022-09-23T19:06:45.985Z,12.73
2022-09-23T19:09:14.243Z,11.88
2022-09-23T19:11:40.797Z,11.48
2022-09-23T19:14:11.147Z,12.40
2022-09-23T19:16:38.973Z,12.70
2022-09-23T19:19:05.799Z,12.07
2022-09-23T19:21:33.364Z,11.55
2022-09-23T19:24:04.691Z,12.50
2022-09-23T19:26:39.261Z,12.13
2022-09-23T19:29:08.257Z,13.18
2022-09-23T19:31:39.925Z,12.47
2022-09-23T19:34:15.301Z,12.35
2022-09-23T19:36:44.358Z,12.43
2022-09-23T19:39:27.694Z,12.80
2022-09-23T19:41:58.736Z,12.63
2022-09-23T19:44:28.284Z,13.27
2022-09-23T19:46:56.742Z,12.88
2022-09-23T19:49:24.532Z,12.88
2022-09-23T19:51:51.683Z,13.73
2022-09-23T19:54:20.483Z,12.88
2022-09-23T19:56:48.619Z,12.47
2022-09-23T19:59:18.806Z,13.15
2022-09-23T20:01:45.835Z,12.60
2022-09-23T20:04:12.460Z,12.48
2022-09-23T20:06:39.354Z,13.15
2022-09-23T20:09:05.854Z,12.60
2022-09-23T20:11:33.351Z,12.77
2022-09-23T20:14:02.218Z,13.90
2022-09-23T20:16:32.352Z,13.35
2022-09-23T20:19:00.152Z,12.93
2022-09-23T20:21:28.064Z,13.10
2022-09-23T20:23:54.477Z,13.70
2022-09-23T20:26:39.386Z,13.52
2022-09-23T20:29:06.493Z,13.15
2022-09-23T20:31:34.397Z,14.10
2022-09-23T20:34:05.249Z,14.25
2022-09-23T20:36:32.679Z,13.98
2022-09-23T20:39:00.737Z,13.35
2022-09-23T20:41:29.725Z,13.63
2022-09-23T20:44:00.541Z,13.30
2022-09-23T20:46:28.465Z,13.43
2022-09-23T20:48:56.615Z,14.20
2022-09-23T20:51:24.539Z,13.43
2022-09-23T20:53:52.706Z,13.73
2022-09-23T20:56:22.719Z,13.98
2022-09-23T20:58:50.620Z,13.53
2022-09-23T21:01:17.619Z,14.82
2022-09-23T21:03:46.441Z,13.88
2022-09-23T21:06:15.440Z,13.75
2022-09-23T21:08:43.061Z,13.77
2022-09-23T21:11:11.914Z,15.00
2022-09-23T21:13:38.346Z,13.90
2022-09-23T21:16:16.138Z,14.02
2022-09-23T21:18:43.591Z,14.18
2022-09-23T21:21:12.042Z,13.98
2022-09-23T21:23:39.476Z,13.50
2022-09-23T21:26:09.218Z,14.00
2022-09-23T21:28:37.629Z,14.13
2022-09-23T21:31:10.798Z,14.07
2022-09-23T21:33:37.823Z,14.45
2022-09-23T21:36:06.667Z,14.30
2022-09-23T21:38:37.164Z,14.30
2022-09-23T21:41:06.462Z,13.60
2022-09-23T21:43:35.290Z,14.43
2022-09-23T21:46:03.959Z,14.68
2022-09-23T21:48:32.643Z,13.93
2022-09-23T21:51:01.996Z,14.73
2022-09-23T21:53:39.596Z,14.85
2022-09-23T21:56:12.387Z,15.13
2022-09-23T21:58:42.231Z,14.57
2022-09-23T22:01:17.867Z,14.05
2022-09-23T22:03:49.619Z,14.63
2022-09-23T22:06:21.638Z,13.55
2022-09-23T22:08:54.501Z,14.13
2022-09-23T22:11:41.992Z,14.23
2022-09-23T22:14:11.610Z,13.60
2022-09-23T22:16:39.143Z,14.55
2022-09-23T22:19:07.006Z,14.30
2022-09-23T22:21:36.498Z,13.75
2022-09-23T22:24:04.554Z,14.97
2022-09-23T22:26:36.624Z,14.82
2022-09-23T22:29:22.339Z,13.98
2022-09-23T22:32:07.520Z,14.65
2022-09-23T22:34:50.917Z,14.73
2022-09-23T22:37:28.411Z,13.83
2022-09-23T22:39:55.100Z,14.10
2022-09-23T22:42:22.226Z,15.02
2022-09-23T22:44:49.041Z,15.35
2022-09-23T22:47:17.565Z,14.85
2022-09-23T22:49:43.985Z,14.03
2022-09-23T22:52:11.207Z,14.98
2022-09-23T22:54:37.701Z,15.18
2022-09-23T22:57:05.277Z,14.85
2022-09-23T22:59:31.866Z,14.60
2022-09-23T23:02:06.547Z,14.87
2022-09-23T23:04:33.471Z,14.88
2022-09-23T23:07:00.687Z,14.70
2022-09-23T23:09:27.060Z,14.75
2022-09-23T23:11:53.562Z,14.90
2022-09-23T23:14:20.406Z,15.07
2022-09-23T23:16:47.481Z,14.70
2022-09-23T23:19:17.380Z,14.35
2022-09-23T23:21:45.714Z,14.68
2022-09-23T23:24:20.927Z,15.48
2022-09-23T23:26:47.956Z,15.30
2022-09-23T23:29:16.109Z,15.48
2022-09-23T23:31:43.403Z,15.00
2022-09-23T23:34:15.725Z,15.75
2022-09-23T23:36:43.516Z,16.02
2022-09-23T23:39:10.715Z,16.20
2022-09-23T23:41:37.924Z,16.08
2022-09-23T23:44:05.403Z,16.27
2022-09-23T23:46:32.667Z,16.42
2022-09-23T23:49:00.149Z,15.80
2022-09-23T23:51:27.350Z,16.50
2022-09-23T23:53:54.676Z,16.13
2022-09-23T23:56:23.584Z,17.52
2022-09-23T23:58:57.952Z,17.48
